sensor_id;sensor_type;location;lat;lon;timestamp;temperature;humidity
18597;DHT22;9428;50.950;6.912;2023-03-01T00:00:34;2.60;99.90
18597;DHT22;9428;50.950;6.912;2023-03-01T00:03:21;2.60;99.90
18597;DHT22;9428;50.950;6.912;2023-03-01T00:06:09;2.70;99.90
18597;DHT22;9428;50.950;6.912;2023-03-01T00:08:56;2.60;99.90
18597;DHT22;9428;50.950;6.912;2023-03-01T00:11:43;2.40;99.90
18597;DHT22;9428;50.950;6.912;2023-03-01T00:14:32;2.70;99.90
18597;DHT22;9428;50.950;6.912;2023-03-01T00:17:19;2.30;99.90
18597;DHT22;9428;50.950;6.912;2023-03-01T00:20:08;2.30;99.90
18597;DHT22;9428;50.950;6.912;2023-03-01T00:22:56;2.20;99.90
18597;DHT22;9428;50.950;6.912;2023-03-01T00:25:43;2.70;99.90
18597;DHT22;9428;50.950;6.912;2023-03-01T00:28:31;3.10;99.90
18597;DHT22;9428;50.950;6.912;2023-03-01T00:31:22;2.40;99.90
18597;DHT22;9428;50.950;6.912;2023-03-01T00:34:10;2.50;99.90
18597;DHT22;9428;50.950;6.912;2023-03-01T00:36:57;3.10;99.90
18597;DHT22;9428;50.950;6.912;2023-03-01T00:39:50;2.60;99.90
18597;DHT22;9428;50.950;6.912;2023-03-01T00:42:38;2.30;99.90
18597;DHT22;9428;50.950;6.912;2023-03-01T00:45:25;2.30;99.90
18597;DHT22;9428;50.950;6.912;2023-03-01T00:48:14;2.20;99.90
18597;DHT22;9428;50.950;6.912;2023-03-01T00:51:05;2.10;99.90
18597;DHT22;9428;50.950;6.912;2023-03-01T00:53:54;2.10;99.90
18597;DHT22;9428;50.950;6.912;2023-03-01T00:56:42;2.10;99.90
18597;DHT22;9428;50.950;6.912;2023-03-01T00:59:29;3.10;99.90
18597;DHT22;9428;50.950;6.912;2023-03-01T01:02:16;2.00;99.90
18597;DHT22;9428;50.950;6.912;2023-03-01T01:05:06;2.00;99.90
18597;DHT22;9428;50.950;6.912;2023-03-01T01:07:54;2.10;99.90
18597;DHT22;9428;50.950;6.912;2023-03-01T01:10:43;2.40;99.90
18597;DHT22;9428;50.950;6.912;2023-03-01T01:13:30;2.00;99.90
18597;DHT22;9428;50.950;6.912;2023-03-01T01:16:19;2.10;99.90
18597;DHT22;9428;50.950;6.912;2023-03-01T01:19:07;2.50;99.90
18597;DHT22;9428;50.950;6.912;2023-03-01T01:21:56;2.00;99.90
18597;DHT22;9428;50.950;6.912;2023-03-01T01:24:43;1.30;99.90
18597;DHT22;9428;50.950;6.912;2023-03-01T01:27:30;2.70;99.90
18597;DHT22;9428;50.950;6.912;2023-03-01T01:30:18;2.60;99.90
18597;DHT22;9428;50.950;6.912;2023-03-01T01:33:05;1.90;99.90
18597;DHT22;9428;50.950;6.912;2023-03-01T01:35:52;2.00;99.90
18597;DHT22;9428;50.950;6.912;2023-03-01T01:38:40;2.00;99.90
18597;DHT22;9428;50.950;6.912;2023-03-01T01:41:29;2.10;99.90
18597;DHT22;9428;50.950;6.912;2023-03-01T01:44:19;2.00;99.90
18597;DHT22;9428;50.950;6.912;2023-03-01T01:47:09;2.20;99.90
18597;DHT22;9428;50.950;6.912;2023-03-01T01:49:59;2.50;99.90
18597;DHT22;9428;50.950;6.912;2023-03-01T01:52:48;2.50;99.90
18597;DHT22;9428;50.950;6.912;2023-03-01T01:55:43;2.40;99.90
18597;DHT22;9428;50.950;6.912;2023-03-01T01:58:32;2.90;99.90
18597;DHT22;9428;50.950;6.912;2023-03-01T02:01:19;2.00;99.90
18597;DHT22;9428;50.950;6.912;2023-03-01T02:04:07;2.20;99.90
18597;DHT22;9428;50.950;6.912;2023-03-01T02:06:58;2.70;99.90
18597;DHT22;9428;50.950;6.912;2023-03-01T02:09:49;2.10;99.90
18597;DHT22;9428;50.950;6.912;2023-03-01T02:12:38;2.10;99.90
18597;DHT22;9428;50.950;6.912;2023-03-01T02:15:26;2.10;99.90
18597;DHT22;9428;50.950;6.912;2023-03-01T02:18:16;2.10;99.90
18597;DHT22;9428;50.950;6.912;2023-03-01T02:21:13;2.10;99.90
18597;DHT22;9428;50.950;6.912;2023-03-01T02:24:10;2.30;99.90
18597;DHT22;9428;50.950;6.912;2023-03-01T02:27:02;2.30;99.90
18597;DHT22;9428;50.950;6.912;2023-03-01T02:29:51;2.30;99.90
18597;DHT22;9428;50.950;6.912;2023-03-01T02:32:39;2.40;99.90
18597;DHT22;9428;50.950;6.912;2023-03-01T02:35:27;2.30;99.90
18597;DHT22;9428;50.950;6.912;2023-03-01T02:38:15;2.30;99.90
18597;DHT22;9428;50.950;6.912;2023-03-01T02:41:04;2.20;99.90
18597;DHT22;9428;50.950;6.912;2023-03-01T02:43:52;2.70;99.90
18597;DHT22;9428;50.950;6.912;2023-03-01T02:46:47;1.70;99.90
18597;DHT22;9428;50.950;6.912;2023-03-01T02:49:35;1.80;99.90
18597;DHT22;9428;50.950;6.912;2023-03-01T02:52:34;2.40;99.90
18597;DHT22;9428;50.950;6.912;2023-03-01T02:55:23;1.90;99.90
18597;DHT22;9428;50.950;6.912;2023-03-01T02:58:11;1.70;99.90
18597;DHT22;9428;50.950;6.912;2023-03-01T03:00:59;2.00;99.90
18597;DHT22;9428;50.950;6.912;2023-03-01T03:03:48;1.70;99.90
18597;DHT22;9428;50.950;6.912;2023-03-01T03:06:35;1.80;99.90
18597;DHT22;9428;50.950;6.912;2023-03-01T03:09:24;1.90;99.90
18597;DHT22;9428;50.950;6.912;2023-03-01T03:12:11;1.60;99.90
18597;DHT22;9428;50.950;6.912;2023-03-01T03:14:58;1.90;99.90
18597;DHT22;9428;50.950;6.912;2023-03-01T03:17:46;2.90;99.90
18597;DHT22;9428;50.950;6.912;2023-03-01T03:20:35;2.40;99.90
18597;DHT22;9428;50.950;6.912;2023-03-01T03:23:23;2.00;99.90
18597;DHT22;9428;50.950;6.912;2023-03-01T03:26:11;2.00;99.90
18597;DHT22;9428;50.950;6.912;2023-03-01T03:29:01;1.80;99.90
18597;DHT22;9428;50.950;6.912;2023-03-01T03:31:48;2.00;99.90
18597;DHT22;9428;50.950;6.912;2023-03-01T03:34:35;1.90;99.90
18597;DHT22;9428;50.950;6.912;2023-03-01T03:37:24;1.90;99.90
18597;DHT22;9428;50.950;6.912;2023-03-01T03:40:31;1.60;99.90
18597;DHT22;9428;50.950;6.912;2023-03-01T03:43:19;1.90;99.90
18597;DHT22;9428;50.950;6.912;2023-03-01T03:46:07;1.80;99.90
18597;DHT22;9428;50.950;6.912;2023-03-01T03:48:54;1.50;99.90
18597;DHT22;9428;50.950;6.912;2023-03-01T03:51:41;1.70;99.90
18597;DHT22;9428;50.950;6.912;2023-03-01T03:54:30;1.60;99.90
18597;DHT22;9428;50.950;6.912;2023-03-01T03:57:17;1.80;99.90
18597;DHT22;9428;50.950;6.912;2023-03-01T04:00:06;1.80;99.90
18597;DHT22;9428;50.950;6.912;2023-03-01T04:02:58;1.70;99.90
18597;DHT22;9428;50.950;6.912;2023-03-01T04:05:46;1.60;99.90
18597;DHT22;9428;50.950;6.912;2023-03-01T04:08:35;1.70;99.90
18597;DHT22;9428;50.950;6.912;2023-03-01T04:11:24;1.70;99.90
18597;DHT22;9428;50.950;6.912;2023-03-01T04:14:14;1.40;99.90
18597;DHT22;9428;50.950;6.912;2023-03-01T04:17:01;1.50;99.90
18597;DHT22;9428;50.950;6.912;2023-03-01T04:19:51;1.50;99.90
18597;DHT22;9428;50.950;6.912;2023-03-01T04:22:39;1.50;99.90
18597;DHT22;9428;50.950;6.912;2023-03-01T04:25:27;2.10;99.90
18597;DHT22;9428;50.950;6.912;2023-03-01T04:28:15;1.20;99.90
18597;DHT22;9428;50.950;6.912;2023-03-01T04:31:05;2.00;99.90
18597;DHT22;9428;50.950;6.912;2023-03-01T04:33:58;1.30;99.90
18597;DHT22;9428;50.950;6.912;2023-03-01T04:36:45;1.40;99.90
18597;DHT22;9428;50.950;6.912;2023-03-01T04:39:33;1.40;99.90
18597;DHT22;9428;50.950;6.912;2023-03-01T04:42:31;1.80;99.90
18597;DHT22;9428;50.950;6.912;2023-03-01T04:45:20;1.00;99.90
18597;DHT22;9428;50.950;6.912;2023-03-01T04:48:07;1.40;99.90
18597;DHT22;9428;50.950;6.912;2023-03-01T04:50:54;1.10;99.90
18597;DHT22;9428;50.950;6.912;2023-03-01T04:53:42;1.20;99.90
18597;DHT22;9428;50.950;6.912;2023-03-01T04:56:30;1.30;99.90
18597;DHT22;9428;50.950;6.912;2023-03-01T04:59:17;0.70;99.90
18597;DHT22;9428;50.950;6.912;2023-03-01T05:02:09;1.20;99.90
18597;DHT22;9428;50.950;6.912;2023-03-01T05:04:56;1.00;99.90
18597;DHT22;9428;50.950;6.912;2023-03-01T05:07:43;1.00;99.90
18597;DHT22;9428;50.950;6.912;2023-03-01T05:10:32;2.10;99.90
18597;DHT22;9428;50.950;6.912;2023-03-01T05:13:21;1.30;99.90
18597;DHT22;9428;50.950;6.912;2023-03-01T05:16:09;1.40;99.90
18597;DHT22;9428;50.950;6.912;2023-03-01T05:18:58;1.20;99.90
18597;DHT22;9428;50.950;6.912;2023-03-01T05:21:46;1.30;99.90
18597;DHT22;9428;50.950;6.912;2023-03-01T05:24:49;1.30;99.90
18597;DHT22;9428;50.950;6.912;2023-03-01T05:27:36;1.40;99.90
18597;DHT22;9428;50.950;6.912;2023-03-01T05:30:24;1.20;99.90
18597;DHT22;9428;50.950;6.912;2023-03-01T05:33:11;1.20;99.90
18597;DHT22;9428;50.950;6.912;2023-03-01T05:36:01;1.30;99.90
18597;DHT22;9428;50.950;6.912;2023-03-01T05:38:48;1.40;99.90
18597;DHT22;9428;50.950;6.912;2023-03-01T05:41:35;1.30;99.90
18597;DHT22;9428;50.950;6.912;2023-03-01T05:44:23;1.30;99.90
18597;DHT22;9428;50.950;6.912;2023-03-01T05:47:11;1.40;99.90
18597;DHT22;9428;50.950;6.912;2023-03-01T05:49:58;1.30;99.90
18597;DHT22;9428;50.950;6.912;2023-03-01T05:52:49;1.40;99.90
18597;DHT22;9428;50.950;6.912;2023-03-01T05:55:37;1.30;99.90
18597;DHT22;9428;50.950;6.912;2023-03-01T05:58:24;1.20;99.90
18597;DHT22;9428;50.950;6.912;2023-03-01T06:01:12;1.20;99.90
18597;DHT22;9428;50.950;6.912;2023-03-01T06:04:00;1.20;99.90
18597;DHT22;9428;50.950;6.912;2023-03-01T06:06:47;1.20;99.90
18597;DHT22;9428;50.950;6.912;2023-03-01T06:09:35;1.30;99.90
18597;DHT22;9428;50.950;6.912;2023-03-01T06:12:23;1.20;99.90
18597;DHT22;9428;50.950;6.912;2023-03-01T06:15:11;1.50;99.90
18597;DHT22;9428;50.950;6.912;2023-03-01T06:17:59;1.00;99.90
18597;DHT22;9428;50.950;6.912;2023-03-01T06:20:52;0.90;99.90
18597;DHT22;9428;50.950;6.912;2023-03-01T06:23:39;0.80;99.90
18597;DHT22;9428;50.950;6.912;2023-03-01T06:26:28;1.40;99.90
18597;DHT22;9428;50.950;6.912;2023-03-01T06:29:15;0.90;99.90
18597;DHT22;9428;50.950;6.912;2023-03-01T06:32:03;0.90;99.90
18597;DHT22;9428;50.950;6.912;2023-03-01T06:34:50;0.90;99.90
18597;DHT22;9428;50.950;6.912;2023-03-01T06:37:37;1.90;99.90
18597;DHT22;9428;50.950;6.912;2023-03-01T06:40:25;0.90;99.90
18597;DHT22;9428;50.950;6.912;2023-03-01T06:43:14;1.10;99.90
18597;DHT22;9428;50.950;6.912;2023-03-01T06:46:04;0.90;99.90
18597;DHT22;9428;50.950;6.912;2023-03-01T06:48:52;0.50;99.90
18597;DHT22;9428;50.950;6.912;2023-03-01T06:51:39;1.00;99.90
18597;DHT22;9428;50.950;6.912;2023-03-01T06:54:26;0.90;99.90
18597;DHT22;9428;50.950;6.912;2023-03-01T06:57:14;0.90;99.90
18597;DHT22;9428;50.950;6.912;2023-03-01T07:00:03;0.90;99.90
18597;DHT22;9428;50.950;6.912;2023-03-01T07:02:51;0.80;99.90
18597;DHT22;9428;50.950;6.912;2023-03-01T07:05:38;0.90;99.90
18597;DHT22;9428;50.950;6.912;2023-03-01T07:08:25;1.00;99.90
18597;DHT22;9428;50.950;6.912;2023-03-01T07:11:13;0.90;99.90
18597;DHT22;9428;50.950;6.912;2023-03-01T07:14:00;0.90;99.90
18597;DHT22;9428;50.950;6.912;2023-03-01T07:16:49;1.10;99.90
18597;DHT22;9428;50.950;6.912;2023-03-01T07:19:36;1.00;99.90
18597;DHT22;9428;50.950;6.912;2023-03-01T07:22:23;1.10;99.90
18597;DHT22;9428;50.950;6.912;2023-03-01T07:25:11;1.10;99.90
18597;DHT22;9428;50.950;6.912;2023-03-01T07:27:58;1.20;99.90
18597;DHT22;9428;50.950;6.912;2023-03-01T07:30:45;1.70;99.90
18597;DHT22;9428;50.950;6.912;2023-03-01T07:33:34;1.10;99.90
18597;DHT22;9428;50.950;6.912;2023-03-01T07:36:21;1.10;99.90
18597;DHT22;9428;50.950;6.912;2023-03-01T07:39:09;1.30;99.90
18597;DHT22;9428;50.950;6.912;2023-03-01T07:41:56;1.20;99.90
18597;DHT22;9428;50.950;6.912;2023-03-01T07:44:43;1.00;99.90
18597;DHT22;9428;50.950;6.912;2023-03-01T07:47:31;1.20;99.90
18597;DHT22;9428;50.950;6.912;2023-03-01T07:50:20;1.20;99.90
18597;DHT22;9428;50.950;6.912;2023-03-01T07:53:08;1.70;99.90
18597;DHT22;9428;50.950;6.912;2023-03-01T07:56:03;1.50;99.90
18597;DHT22;9428;50.950;6.912;2023-03-01T07:58:50;1.20;99.90
18597;DHT22;9428;50.950;6.912;2023-03-01T08:01:37;1.50;99.90
18597;DHT22;9428;50.950;6.912;2023-03-01T08:04:24;1.70;99.90
18597;DHT22;9428;50.950;6.912;2023-03-01T08:07:13;1.70;99.90
18597;DHT22;9428;50.950;6.912;2023-03-01T08:10:01;1.90;99.90
18597;DHT22;9428;50.950;6.912;2023-03-01T08:12:50;1.70;99.90
18597;DHT22;9428;50.950;6.912;2023-03-01T08:15:37;1.80;99.90
18597;DHT22;9428;50.950;6.912;2023-03-01T08:18:25;2.20;99.90
18597;DHT22;9428;50.950;6.912;2023-03-01T08:21:14;2.00;99.90
18597;DHT22;9428;50.950;6.912;2023-03-01T08:24:03;2.00;99.90
18597;DHT22;9428;50.950;6.912;2023-03-01T08:26:51;2.10;99.90
18597;DHT22;9428;50.950;6.912;2023-03-01T08:29:38;2.10;99.90
18597;DHT22;9428;50.950;6.912;2023-03-01T08:32:25;2.10;99.90
18597;DHT22;9428;50.950;6.912;2023-03-01T08:35:13;2.10;99.90
18597;DHT22;9428;50.950;6.912;2023-03-01T08:38:00;2.30;99.90
18597;DHT22;9428;50.950;6.912;2023-03-01T08:40:48;2.40;99.90
18597;DHT22;9428;50.950;6.912;2023-03-01T08:43:35;2.30;99.90
18597;DHT22;9428;50.950;6.912;2023-03-01T08:46:23;2.40;99.90
18597;DHT22;9428;50.950;6.912;2023-03-01T08:49:12;2.60;99.90
18597;DHT22;9428;50.950;6.912;2023-03-01T08:51:59;2.50;99.90
18597;DHT22;9428;50.950;6.912;2023-03-01T08:54:47;2.50;99.90
18597;DHT22;9428;50.950;6.912;2023-03-01T08:57:36;2.50;99.90
18597;DHT22;9428;50.950;6.912;2023-03-01T09:00:23;2.50;99.90
18597;DHT22;9428;50.950;6.912;2023-03-01T09:03:10;2.60;99.90
18597;DHT22;9428;50.950;6.912;2023-03-01T09:06:00;2.60;99.90
18597;DHT22;9428;50.950;6.912;2023-03-01T09:08:49;2.70;99.90
18597;DHT22;9428;50.950;6.912;2023-03-01T09:11:36;2.80;99.90
18597;DHT22;9428;50.950;6.912;2023-03-01T09:14:25;3.30;99.90
18597;DHT22;9428;50.950;6.912;2023-03-01T09:17:12;3.30;99.90
18597;DHT22;9428;50.950;6.912;2023-03-01T09:19:59;3.30;99.90
18597;DHT22;9428;50.950;6.912;2023-03-01T09:22:46;3.40;99.90
18597;DHT22;9428;50.950;6.912;2023-03-01T09:25:34;3.30;99.90
18597;DHT22;9428;50.950;6.912;2023-03-01T09:28:21;3.30;99.90
18597;DHT22;9428;50.950;6.912;2023-03-01T09:31:10;3.40;99.90
18597;DHT22;9428;50.950;6.912;2023-03-01T09:34:00;3.50;99.90
18597;DHT22;9428;50.950;6.912;2023-03-01T09:36:47;3.60;99.90
18597;DHT22;9428;50.950;6.912;2023-03-01T09:39:35;3.60;99.90
18597;DHT22;9428;50.950;6.912;2023-03-01T09:42:23;3.60;99.90
18597;DHT22;9428;50.950;6.912;2023-03-01T09:45:15;3.50;99.90
18597;DHT22;9428;50.950;6.912;2023-03-01T09:48:12;3.60;99.90
18597;DHT22;9428;50.950;6.912;2023-03-01T09:51:03;3.60;99.90
18597;DHT22;9428;50.950;6.912;2023-03-01T09:53:53;3.60;99.90
18597;DHT22;9428;50.950;6.912;2023-03-01T09:56:52;3.70;99.90
18597;DHT22;9428;50.950;6.912;2023-03-01T09:59:51;3.70;99.90
18597;DHT22;9428;50.950;6.912;2023-03-01T10:02:43;3.70;99.90
18597;DHT22;9428;50.950;6.912;2023-03-01T10:05:44;3.70;99.90
18597;DHT22;9428;50.950;6.912;2023-03-01T10:08:38;3.70;99.90
18597;DHT22;9428;50.950;6.912;2023-03-01T10:11:30;3.80;99.90
18597;DHT22;9428;50.950;6.912;2023-03-01T10:14:28;3.80;99.90
18597;DHT22;9428;50.950;6.912;2023-03-01T10:17:24;3.90;99.90
18597;DHT22;9428;50.950;6.912;2023-03-01T10:20:19;4.60;99.90
18597;DHT22;9428;50.950;6.912;2023-03-01T10:23:09;4.00;99.90
18597;DHT22;9428;50.950;6.912;2023-03-01T10:26:09;4.10;99.90
18597;DHT22;9428;50.950;6.912;2023-03-01T10:29:02;4.10;99.90
18597;DHT22;9428;50.950;6.912;2023-03-01T10:31:51;4.20;99.90
18597;DHT22;9428;50.950;6.912;2023-03-01T10:34:39;4.80;99.90
18597;DHT22;9428;50.950;6.912;2023-03-01T10:37:27;4.50;99.90
18597;DHT22;9428;50.950;6.912;2023-03-01T10:40:17;4.30;99.90
18597;DHT22;9428;50.950;6.912;2023-03-01T10:43:05;4.30;99.90
18597;DHT22;9428;50.950;6.912;2023-03-01T10:45:53;5.00;99.90
18597;DHT22;9428;50.950;6.912;2023-03-01T10:48:40;4.30;99.90
18597;DHT22;9428;50.950;6.912;2023-03-01T10:51:27;4.80;99.90
18597;DHT22;9428;50.950;6.912;2023-03-01T10:54:20;4.30;99.90
18597;DHT22;9428;50.950;6.912;2023-03-01T10:57:27;4.90;99.90
18597;DHT22;9428;50.950;6.912;2023-03-01T11:00:19;5.30;99.90
18597;DHT22;9428;50.950;6.912;2023-03-01T11:03:12;4.40;99.90
18597;DHT22;9428;50.950;6.912;2023-03-01T11:06:03;4.80;99.90
18597;DHT22;9428;50.950;6.912;2023-03-01T11:08:51;4.50;99.90
18597;DHT22;9428;50.950;6.912;2023-03-01T11:11:39;4.50;99.90
18597;DHT22;9428;50.950;6.912;2023-03-01T11:14:32;4.40;99.90
18597;DHT22;9428;50.950;6.912;2023-03-01T11:17:25;4.40;99.90
18597;DHT22;9428;50.950;6.912;2023-03-01T11:20:20;4.90;99.90
18597;DHT22;9428;50.950;6.912;2023-03-01T11:23:13;4.60;99.90
18597;DHT22;9428;50.950;6.912;2023-03-01T11:26:04;4.90;99.90
18597;DHT22;9428;50.950;6.912;2023-03-01T11:28:56;4.60;99.90
18597;DHT22;9428;50.950;6.912;2023-03-01T11:31:47;4.60;99.90
18597;DHT22;9428;50.950;6.912;2023-03-01T11:34:42;5.20;99.90
18597;DHT22;9428;50.950;6.912;2023-03-01T11:37:35;5.00;99.90
18597;DHT22;9428;50.950;6.912;2023-03-01T11:40:26;4.80;99.90
18597;DHT22;9428;50.950;6.912;2023-03-01T11:43:19;4.80;99.90
18597;DHT22;9428;50.950;6.912;2023-03-01T11:46:29;5.20;99.90
18597;DHT22;9428;50.950;6.912;2023-03-01T11:49:45;4.90;99.90
18597;DHT22;9428;50.950;6.912;2023-03-01T11:52:43;5.00;99.90
18597;DHT22;9428;50.950;6.912;2023-03-01T11:55:52;5.00;99.90
18597;DHT22;9428;50.950;6.912;2023-03-01T12:02:02;5.00;99.90
18597;DHT22;9428;50.950;6.912;2023-03-01T12:05:23;5.20;99.90
18597;DHT22;9428;50.950;6.912;2023-03-01T12:08:16;5.10;99.90
18597;DHT22;9428;50.950;6.912;2023-03-01T12:11:12;5.10;99.90
18597;DHT22;9428;50.950;6.912;2023-03-01T12:14:25;5.10;99.90
18597;DHT22;9428;50.950;6.912;2023-03-01T12:17:50;5.10;99.90
18597;DHT22;9428;50.950;6.912;2023-03-01T12:20:47;5.20;99.90
18597;DHT22;9428;50.950;6.912;2023-03-01T12:27:06;5.30;99.90
18597;DHT22;9428;50.950;6.912;2023-03-01T12:30:06;5.70;99.90
18597;DHT22;9428;50.950;6.912;2023-03-01T12:33:14;5.60;99.90
18597;DHT22;9428;50.950;6.912;2023-03-01T12:36:31;5.60;99.90
18597;DHT22;9428;50.950;6.912;2023-03-01T12:39:35;5.70;99.90
18597;DHT22;9428;50.950;6.912;2023-03-01T12:42:31;5.80;99.90
18597;DHT22;9428;50.950;6.912;2023-03-01T12:45:37;6.10;99.90
18597;DHT22;9428;50.950;6.912;2023-03-01T12:48:37;5.80;99.90
18597;DHT22;9428;50.950;6.912;2023-03-01T12:51:31;6.00;99.90
18597;DHT22;9428;50.950;6.912;2023-03-01T12:54:26;5.90;99.90
18597;DHT22;9428;50.950;6.912;2023-03-01T12:57:18;5.90;99.90
18597;DHT22;9428;50.950;6.912;2023-03-01T13:00:22;6.00;99.90
18597;DHT22;9428;50.950;6.912;2023-03-01T13:03:20;6.00;99.90
18597;DHT22;9428;50.950;6.912;2023-03-01T13:06:18;6.00;99.90
18597;DHT22;9428;50.950;6.912;2023-03-01T13:09:13;6.00;99.90
18597;DHT22;9428;50.950;6.912;2023-03-01T13:12:02;6.00;99.90
18597;DHT22;9428;50.950;6.912;2023-03-01T13:14:53;6.20;99.90
18597;DHT22;9428;50.950;6.912;2023-03-01T13:17:43;7.00;99.90
18597;DHT22;9428;50.950;6.912;2023-03-01T13:20:34;6.20;99.90
18597;DHT22;9428;50.950;6.912;2023-03-01T13:23:37;6.30;99.90
18597;DHT22;9428;50.950;6.912;2023-03-01T13:26:25;6.40;99.90
18597;DHT22;9428;50.950;6.912;2023-03-01T13:29:26;6.50;99.90
18597;DHT22;9428;50.950;6.912;2023-03-01T13:32:20;6.70;99.90
18597;DHT22;9428;50.950;6.912;2023-03-01T13:38:46;6.60;99.90
18597;DHT22;9428;50.950;6.912;2023-03-01T13:41:51;6.80;99.90
18597;DHT22;9428;50.950;6.912;2023-03-01T13:44:38;6.70;99.90
18597;DHT22;9428;50.950;6.912;2023-03-01T13:47:28;6.80;99.90
18597;DHT22;9428;50.950;6.912;2023-03-01T13:50:21;6.80;99.90
18597;DHT22;9428;50.950;6.912;2023-03-01T13:53:15;6.70;99.90
18597;DHT22;9428;50.950;6.912;2023-03-01T13:56:08;6.90;99.90
18597;DHT22;9428;50.950;6.912;2023-03-01T13:59:01;6.80;99.90
18597;DHT22;9428;50.950;6.912;2023-03-01T14:01:52;6.90;99.90
18597;DHT22;9428;50.950;6.912;2023-03-01T14:04:39;7.00;99.90
18597;DHT22;9428;50.950;6.912;2023-03-01T14:07:27;7.10;99.90
18597;DHT22;9428;50.950;6.912;2023-03-01T14:10:16;7.00;99.80
18597;DHT22;9428;50.950;6.912;2023-03-01T14:13:17;7.10;99.80
18597;DHT22;9428;50.950;6.912;2023-03-01T14:16:18;7.20;99.60
18597;DHT22;9428;50.950;6.912;2023-03-01T14:19:15;7.10;99.40
18597;DHT22;9428;50.950;6.912;2023-03-01T14:22:12;7.20;99.30
18597;DHT22;9428;50.950;6.912;2023-03-01T14:25:02;7.20;98.80
18597;DHT22;9428;50.950;6.912;2023-03-01T14:27:54;7.50;98.00
18597;DHT22;9428;50.950;6.912;2023-03-01T14:30:43;7.20;97.90
18597;DHT22;9428;50.950;6.912;2023-03-01T14:33:34;7.20;99.90
18597;DHT22;9428;50.950;6.912;2023-03-01T14:36:26;7.30;99.90
18597;DHT22;9428;50.950;6.912;2023-03-01T14:39:18;7.30;99.90
18597;DHT22;9428;50.950;6.912;2023-03-01T14:42:06;7.30;99.90
18597;DHT22;9428;50.950;6.912;2023-03-01T14:44:55;7.30;99.90
18597;DHT22;9428;50.950;6.912;2023-03-01T14:47:44;7.30;99.90
18597;DHT22;9428;50.950;6.912;2023-03-01T14:50:34;7.30;99.90
18597;DHT22;9428;50.950;6.912;2023-03-01T14:53:25;7.20;99.90
18597;DHT22;9428;50.950;6.912;2023-03-01T14:56:14;7.30;99.90
18597;DHT22;9428;50.950;6.912;2023-03-01T14:59:03;7.30;99.90
18597;DHT22;9428;50.950;6.912;2023-03-01T15:01:51;7.40;99.90
18597;DHT22;9428;50.950;6.912;2023-03-01T15:04:41;7.30;99.90
18597;DHT22;9428;50.950;6.912;2023-03-01T15:07:34;7.30;99.90
18597;DHT22;9428;50.950;6.912;2023-03-01T15:10:23;7.30;99.90
18597;DHT22;9428;50.950;6.912;2023-03-01T15:13:12;7.30;99.90
18597;DHT22;9428;50.950;6.912;2023-03-01T15:16:18;7.20;99.90
18597;DHT22;9428;50.950;6.912;2023-03-01T15:19:07;7.20;99.90
18597;DHT22;9428;50.950;6.912;2023-03-01T15:21:55;7.20;99.90
18597;DHT22;9428;50.950;6.912;2023-03-01T15:24:47;7.20;99.90
18597;DHT22;9428;50.950;6.912;2023-03-01T15:27:35;7.20;99.90
18597;DHT22;9428;50.950;6.912;2023-03-01T15:30:25;7.10;99.90
18597;DHT22;9428;50.950;6.912;2023-03-01T15:33:18;7.10;99.90
18597;DHT22;9428;50.950;6.912;2023-03-01T15:36:32;7.10;99.90
18597;DHT22;9428;50.950;6.912;2023-03-01T15:39:38;7.00;99.90
18597;DHT22;9428;50.950;6.912;2023-03-01T15:42:39;7.10;99.90
18597;DHT22;9428;50.950;6.912;2023-03-01T15:45:28;7.10;99.90
18597;DHT22;9428;50.950;6.912;2023-03-01T15:48:18;7.00;99.90
18597;DHT22;9428;50.950;6.912;2023-03-01T15:51:11;7.00;99.90
18597;DHT22;9428;50.950;6.912;2023-03-01T15:54:02;7.80;99.90
18597;DHT22;9428;50.950;6.912;2023-03-01T15:56:49;7.10;99.90
18597;DHT22;9428;50.950;6.912;2023-03-01T15:59:38;7.20;99.90
18597;DHT22;9428;50.950;6.912;2023-03-01T16:02:26;7.10;99.90
18597;DHT22;9428;50.950;6.912;2023-03-01T16:05:19;7.00;99.90
18597;DHT22;9428;50.950;6.912;2023-03-01T16:08:06;7.00;99.90
18597;DHT22;9428;50.950;6.912;2023-03-01T16:10:54;6.90;99.90
18597;DHT22;9428;50.950;6.912;2023-03-01T16:13:41;7.10;99.90
18597;DHT22;9428;50.950;6.912;2023-03-01T16:16:30;7.00;99.90
18597;DHT22;9428;50.950;6.912;2023-03-01T16:19:17;7.00;99.90
18597;DHT22;9428;50.950;6.912;2023-03-01T16:22:04;7.00;99.90
18597;DHT22;9428;50.950;6.912;2023-03-01T16:24:51;7.20;99.90
18597;DHT22;9428;50.950;6.912;2023-03-01T16:27:41;7.00;99.90
18597;DHT22;9428;50.950;6.912;2023-03-01T16:30:28;6.90;99.90
18597;DHT22;9428;50.950;6.912;2023-03-01T16:33:17;6.90;99.90
18597;DHT22;9428;50.950;6.912;2023-03-01T16:36:08;6.90;99.90
18597;DHT22;9428;50.950;6.912;2023-03-01T16:38:58;6.90;99.90
18597;DHT22;9428;50.950;6.912;2023-03-01T16:41:46;6.90;99.90
18597;DHT22;9428;50.950;6.912;2023-03-01T16:44:33;6.80;99.90
18597;DHT22;9428;50.950;6.912;2023-03-01T16:47:20;6.80;99.90
18597;DHT22;9428;50.950;6.912;2023-03-01T16:50:10;6.80;99.90
18597;DHT22;9428;50.950;6.912;2023-03-01T16:52:57;6.80;99.90
18597;DHT22;9428;50.950;6.912;2023-03-01T16:55:53;6.80;99.90
18597;DHT22;9428;50.950;6.912;2023-03-01T16:58:40;6.70;99.90
18597;DHT22;9428;50.950;6.912;2023-03-01T17:01:28;6.70;99.90
18597;DHT22;9428;50.950;6.912;2023-03-01T17:04:23;6.70;99.90
18597;DHT22;9428;50.950;6.912;2023-03-01T17:07:11;6.60;99.90
18597;DHT22;9428;50.950;6.912;2023-03-01T17:10:00;6.60;99.90
18597;DHT22;9428;50.950;6.912;2023-03-01T17:12:48;6.60;99.90
18597;DHT22;9428;50.950;6.912;2023-03-01T17:15:38;6.70;99.90
18597;DHT22;9428;50.950;6.912;2023-03-01T17:18:25;6.60;99.90
18597;DHT22;9428;50.950;6.912;2023-03-01T17:21:13;6.50;99.90
18597;DHT22;9428;50.950;6.912;2023-03-01T17:24:01;6.40;99.90
18597;DHT22;9428;50.950;6.912;2023-03-01T17:26:49;6.70;99.90
18597;DHT22;9428;50.950;6.912;2023-03-01T17:29:36;6.40;99.90
18597;DHT22;9428;50.950;6.912;2023-03-01T17:32:24;6.40;99.90
18597;DHT22;9428;50.950;6.912;2023-03-01T17:35:11;6.40;99.90
18597;DHT22;9428;50.950;6.912;2023-03-01T17:37:58;6.30;99.90
18597;DHT22;9428;50.950;6.912;2023-03-01T17:40:46;6.30;99.90
18597;DHT22;9428;50.950;6.912;2023-03-01T17:43:34;6.20;99.90
18597;DHT22;9428;50.950;6.912;2023-03-01T17:46:21;6.20;99.90
18597;DHT22;9428;50.950;6.912;2023-03-01T17:49:09;6.20;99.90
18597;DHT22;9428;50.950;6.912;2023-03-01T17:51:57;6.10;99.90
18597;DHT22;9428;50.950;6.912;2023-03-01T17:54:44;6.00;99.90
18597;DHT22;9428;50.950;6.912;2023-03-01T17:57:32;6.10;99.90
18597;DHT22;9428;50.950;6.912;2023-03-01T18:00:20;6.00;99.90
18597;DHT22;9428;50.950;6.912;2023-03-01T18:03:07;6.00;99.90
18597;DHT22;9428;50.950;6.912;2023-03-01T18:05:54;5.90;99.90
18597;DHT22;9428;50.950;6.912;2023-03-01T18:08:42;5.90;99.90
18597;DHT22;9428;50.950;6.912;2023-03-01T18:11:32;5.80;99.90
18597;DHT22;9428;50.950;6.912;2023-03-01T18:14:21;5.90;99.90
18597;DHT22;9428;50.950;6.912;2023-03-01T18:17:09;5.90;99.90
18597;DHT22;9428;50.950;6.912;2023-03-01T18:19:57;5.80;99.90
18597;DHT22;9428;50.950;6.912;2023-03-01T18:22:44;5.90;99.90
18597;DHT22;9428;50.950;6.912;2023-03-01T18:25:31;5.80;99.90
18597;DHT22;9428;50.950;6.912;2023-03-01T18:28:18;5.80;99.90
18597;DHT22;9428;50.950;6.912;2023-03-01T18:31:08;5.70;99.90
18597;DHT22;9428;50.950;6.912;2023-03-01T18:33:58;5.70;99.90
18597;DHT22;9428;50.950;6.912;2023-03-01T18:36:47;5.70;99.90
18597;DHT22;9428;50.950;6.912;2023-03-01T18:39:36;5.60;99.90
18597;DHT22;9428;50.950;6.912;2023-03-01T18:42:24;5.60;99.90